createdAt,value
2023-03-17T00:15:41.328Z,2.00
2023-03-17T00:18:18.576Z,1.30
2023-03-17T00:20:48.056Z,1.92
2023-03-17T00:23:23.785Z,1.88
2023-03-17T00:25:52.607Z,1.65
2023-03-17T00:28:23.951Z,1.05
2023-03-17T00:31:01.150Z,1.33
2023-03-17T00:33:34.381Z,1.60
2023-03-17T00:36:03.010Z,1.85
2023-03-17T00:38:31.203Z,1.48
2023-03-17T00:40:59.383Z,1.52
2023-03-17T00:43:29.235Z,1.58
2023-03-17T00:45:58.636Z,1.63
2023-03-17T00:48:27.970Z,1.73
2023-03-17T00:50:56.463Z,1.02
2023-03-17T00:53:24.714Z,1.67
2023-03-17T00:55:53.125Z,1.55
2023-03-17T00:58:29.906Z,1.63
2023-03-17T01:00:58.482Z,1.45
2023-03-17T01:03:27.472Z,1.42
2023-03-17T01:05:57.181Z,1.20
2023-03-17T01:08:26.517Z,1.73
2023-03-17T01:10:54.679Z,1.75
2023-03-17T01:13:23.044Z,1.50
2023-03-17T01:18:23.104Z,1.52
2023-03-17T01:20:52.193Z,1.52
2023-03-17T01:23:20.333Z,1.63
2023-03-17T01:25:48.595Z,2.30
2023-03-17T01:28:19.195Z,1.75
2023-03-17T01:30:48.002Z,1.38
2023-03-17T01:33:16.170Z,1.52
2023-03-17T01:35:44.929Z,1.70
2023-03-17T01:38:14.084Z,1.75
2023-03-17T01:40:48.645Z,1.27
2023-03-17T01:43:26.129Z,1.95
2023-03-17T01:46:24.047Z,1.45
2023-03-17T01:48:59.475Z,1.33
2023-03-17T01:51:47.801Z,1.98
2023-03-17T01:54:22.500Z,1.67
2023-03-17T01:56:52.994Z,1.40
2023-03-17T01:59:26.413Z,1.63
2023-03-17T02:02:01.644Z,1.80
2023-03-17T02:04:30.314Z,1.55
2023-03-17T02:06:59.171Z,1.40
2023-03-17T02:09:29.129Z,1.50
2023-03-17T02:11:59.186Z,1.67
2023-03-17T02:14:27.905Z,1.98
2023-03-17T02:16:56.425Z,1.38
2023-03-17T02:19:24.881Z,1.40
2023-03-17T02:21:57.656Z,1.85
2023-03-17T02:24:31.638Z,1.63
2023-03-17T02:27:09.180Z,1.58
2023-03-17T02:29:37.621Z,1.38
2023-03-17T02:34:35.005Z,1.55
2023-03-17T02:37:06.018Z,1.83
2023-03-17T02:39:34.687Z,1.23
2023-03-17T02:42:04.348Z,1.17
2023-03-17T02:44:32.542Z,1.50
2023-03-17T02:47:00.687Z,1.60
2023-03-17T02:49:30.118Z,1.17
2023-03-17T02:51:58.391Z,1.08
2023-03-17T02:54:26.772Z,1.60
2023-03-17T02:59:22.771Z,1.42
2023-03-17T03:01:51.022Z,1.70
2023-03-17T03:04:20.296Z,1.90
2023-03-17T03:06:49.165Z,1.48
2023-03-17T03:09:17.328Z,1.42
2023-03-17T03:11:45.953Z,1.58
2023-03-17T03:14:14.797Z,1.75
2023-03-17T03:16:43.136Z,1.60
2023-03-17T03:19:11.307Z,1.52
2023-03-17T03:24:07.913Z,1.38
2023-03-17T03:26:36.307Z,1.50
2023-03-17T03:29:05.587Z,1.92
2023-03-17T03:31:34.057Z,2.08
2023-03-17T03:34:02.252Z,1.42
2023-03-17T03:36:30.524Z,1.30
2023-03-17T03:41:26.650Z,2.28
2023-03-17T03:43:54.777Z,1.25
2023-03-17T03:46:23.277Z,1.63
2023-03-17T03:51:19.466Z,1.63
2023-03-17T03:53:47.644Z,1.48
2023-03-17T03:56:16.024Z,1.08
2023-03-17T04:01:12.016Z,1.58
2023-03-17T04:03:40.243Z,1.35
2023-03-17T04:06:08.651Z,1.00
2023-03-17T04:08:36.820Z,1.50
2023-03-17T04:11:05.251Z,1.60
2023-03-17T04:16:01.478Z,1.75
2023-03-17T04:20:57.655Z,1.10
2023-03-17T04:23:25.909Z,1.65
2023-03-17T04:25:54.593Z,1.40
2023-03-17T04:28:22.761Z,1.45
2023-03-17T04:30:51.016Z,1.45
2023-03-17T04:33:19.172Z,1.73
2023-03-17T04:35:47.376Z,2.28
2023-03-17T04:38:15.686Z,1.60
2023-03-17T04:43:11.821Z,1.85
2023-03-17T04:45:40.138Z,1.30
2023-03-17T04:48:08.344Z,1.52
2023-03-17T04:50:36.559Z,1.30
2023-03-17T04:53:04.732Z,1.50
2023-03-17T04:55:32.893Z,2.08
2023-03-17T04:58:01.389Z,1.30
2023-03-17T05:00:29.863Z,1.40
2023-03-17T05:02:58.174Z,1.58
2023-03-17T05:05:26.523Z,1.67
2023-03-17T05:10:22.466Z,1.67
2023-03-17T05:12:50.755Z,1.40
2023-03-17T05:15:19.346Z,1.40
2023-03-17T05:17:47.668Z,1.20
2023-03-17T05:20:15.996Z,1.30
2023-03-17T05:25:12.008Z,1.42
2023-03-17T05:30:08.837Z,1.20
2023-03-17T05:32:37.121Z,1.40
2023-03-17T05:35:05.581Z,1.15
2023-03-17T05:37:33.773Z,1.35
2023-03-17T05:40:01.997Z,1.20
2023-03-17T05:42:30.342Z,1.33
2023-03-17T05:44:58.560Z,1.27
2023-03-17T05:52:23.148Z,1.33
2023-03-17T05:54:51.454Z,1.30
2023-03-17T05:59:47.743Z,1.50
2023-03-17T06:07:12.242Z,1.10
2023-03-17T06:09:40.609Z,1.48
2023-03-17T06:14:36.965Z,1.42
2023-03-17T06:19:33.081Z,0.95
2023-03-17T06:22:01.401Z,1.63
2023-03-17T06:26:57.355Z,0.98
2023-03-17T06:29:25.770Z,1.08
2023-03-17T06:34:23.773Z,1.67
2023-03-17T06:36:52.009Z,1.45
2023-03-17T06:39:20.099Z,0.80
2023-03-17T06:41:48.466Z,1.10
2023-03-17T06:44:16.908Z,1.27
2023-03-17T06:46:45.299Z,1.38
2023-03-17T06:51:41.663Z,0.88
2023-03-17T06:56:37.857Z,1.45
2023-03-17T06:59:06.271Z,1.30
2023-03-17T07:04:02.263Z,0.90
2023-03-17T07:06:30.545Z,1.05
2023-03-17T07:11:30.558Z,1.08
2023-03-17T07:13:59.089Z,1.40
2023-03-17T07:16:27.295Z,1.10
2023-03-17T07:18:56.302Z,1.00
2023-03-17T07:21:24.519Z,1.35
2023-03-17T07:26:20.653Z,0.95
2023-03-17T07:28:48.902Z,1.83
2023-03-17T07:31:17.493Z,1.40
2023-03-17T07:33:45.856Z,1.55
2023-03-17T07:36:14.990Z,0.85
2023-03-17T07:38:43.196Z,1.77
2023-03-17T07:41:11.319Z,1.73
2023-03-17T07:43:39.603Z,1.35
2023-03-17T07:46:07.723Z,1.50
2023-03-17T07:48:36.035Z,1.63
2023-03-17T07:51:04.241Z,1.52
2023-03-17T07:53:32.586Z,1.88
2023-03-17T07:58:28.708Z,1.55
2023-03-17T08:00:56.766Z,1.30
2023-03-17T08:03:25.172Z,1.35
2023-03-17T08:08:25.520Z,1.60
2023-03-17T08:10:58.433Z,1.50
2023-03-17T08:13:26.851Z,1.80
2023-03-17T08:18:23.390Z,1.92
2023-03-17T08:20:51.848Z,1.85
2023-03-17T08:23:21.061Z,1.83
2023-03-17T08:25:49.555Z,2.25
2023-03-17T08:28:17.828Z,2.10
2023-03-17T08:30:47.528Z,1.52
2023-03-17T08:33:17.886Z,2.05
2023-03-17T08:35:46.276Z,1.70
2023-03-17T08:38:14.777Z,1.35
2023-03-17T08:40:43.012Z,2.00
2023-03-17T08:55:40.753Z,2.38
2023-03-17T08:58:09.041Z,2.30
2023-03-17T09:00:37.261Z,1.92
2023-03-17T09:03:05.705Z,2.28
2023-03-17T09:08:05.323Z,2.00
2023-03-17T09:13:02.023Z,1.80
2023-03-17T09:17:58.972Z,1.98
2023-03-17T09:20:27.395Z,1.75
2023-03-17T09:25:23.874Z,1.58
2023-03-17T09:30:20.286Z,2.28
2023-03-17T09:35:16.683Z,1.20
2023-03-17T09:40:17.857Z,1.65
2023-03-17T09:43:01.182Z,2.22
2023-03-17T09:45:37.464Z,1.63
2023-03-17T09:48:29.219Z,2.28
2023-03-17T09:51:09.437Z,2.33
2023-03-17T09:53:42.192Z,1.80
2023-03-17T09:56:18.237Z,1.75
2023-03-17T09:59:08.479Z,1.70
2023-03-17T10:01:44.992Z,2.20
2023-03-17T10:04:13.492Z,2.05
2023-03-17T10:09:47.652Z,1.42
2023-03-17T10:12:54.312Z,1.77
2023-03-17T10:15:37.872Z,1.95
2023-03-17T10:18:17.862Z,2.08
2023-03-17T10:21:02.756Z,1.90
2023-03-17T10:23:36.702Z,2.15
2023-03-17T10:26:32.067Z,1.88
2023-03-17T10:29:00.697Z,1.80
2023-03-17T10:31:32.121Z,2.00
2023-03-17T10:34:16.342Z,1.98
2023-03-17T10:36:49.061Z,2.30
2023-03-17T10:39:22.839Z,1.63
2023-03-17T10:42:11.769Z,1.98
2023-03-17T10:45:06.911Z,2.30
2023-03-17T10:47:44.935Z,2.00
2023-03-17T10:50:16.092Z,1.67
2023-03-17T10:52:45.598Z,2.10
2023-03-17T10:55:18.834Z,1.73
2023-03-17T10:58:01.044Z,2.03
2023-03-17T11:00:32.688Z,2.33
2023-03-17T11:03:04.937Z,1.92
2023-03-17T11:05:33.186Z,1.70
2023-03-17T11:08:15.745Z,1.70
2023-03-17T11:10:44.518Z,2.15
2023-03-17T11:13:17.809Z,2.25
2023-03-17T11:15:58.758Z,2.05
2023-03-17T11:18:35.446Z,1.85
2023-03-17T11:21:20.864Z,1.67
2023-03-17T11:23:59.700Z,2.10
2023-03-17T11:26:55.905Z,2.33
2023-03-17T11:29:44.375Z,2.08
2023-03-17T11:32:12.525Z,2.05
2023-03-17T11:35:01.213Z,1.63
2023-03-17T11:37:47.118Z,2.03
2023-03-17T11:40:31.503Z,2.90
2023-03-17T11:43:23.943Z,2.40
2023-03-17T11:46:24.611Z,2.28
2023-03-17T11:49:16.515Z,2.78
2023-03-17T11:51:50.142Z,2.13
2023-03-17T11:54:18.618Z,2.13
2023-03-17T11:56:51.774Z,2.35
2023-03-17T11:59:29.544Z,2.05
2023-03-17T12:02:30.372Z,2.65
2023-03-17T12:05:08.788Z,2.42
2023-03-17T12:07:48.712Z,2.80
2023-03-17T12:10:55.740Z,2.65
2023-03-17T12:13:57.993Z,2.07
2023-03-17T12:16:47.980Z,2.78
2023-03-17T12:20:01.150Z,2.47
2023-03-17T12:22:34.709Z,2.80
2023-03-17T12:25:34.063Z,2.38
2023-03-17T12:28:19.336Z,2.05
2023-03-17T12:30:54.727Z,2.22
2023-03-17T12:33:31.580Z,2.20
2023-03-17T12:36:00.559Z,2.78
2023-03-17T12:38:31.949Z,2.63
2023-03-17T12:41:27.860Z,2.75
2023-03-17T12:44:17.370Z,2.60
2023-03-17T12:47:06.956Z,2.90
2023-03-17T12:49:47.285Z,3.05
2023-03-17T12:52:27.900Z,2.67
2023-03-17T12:55:00.887Z,2.22
2023-03-17T12:57:36.863Z,2.25
2023-03-17T13:00:16.976Z,2.70
2023-03-17T13:02:51.385Z,3.40
2023-03-17T13:05:32.491Z,3.15
2023-03-17T13:08:04.463Z,2.65
2023-03-17T13:10:45.383Z,2.10
2023-03-17T13:13:44.743Z,2.50
2023-03-17T13:16:30.563Z,2.88
2023-03-17T13:19:13.701Z,2.45
2023-03-17T13:22:05.300Z,2.42
2023-03-17T13:24:50.342Z,2.60
2023-03-17T13:27:34.027Z,3.03
2023-03-17T13:30:23.667Z,2.75
2023-03-17T13:33:20.243Z,3.10
2023-03-17T13:36:23.685Z,2.92
2023-03-17T13:39:23.550Z,3.40
2023-03-17T13:42:24.452Z,2.92
2023-03-17T13:45:08.567Z,3.10
2023-03-17T13:47:39.384Z,3.33
2023-03-17T13:50:26.152Z,2.67
2023-03-17T13:53:03.155Z,3.13
2023-03-17T13:55:36.860Z,3.13
2023-03-17T13:58:10.942Z,2.50
2023-03-17T14:00:49.240Z,2.85
2023-03-17T14:03:25.713Z,2.85
2023-03-17T14:05:54.966Z,3.67
2023-03-17T14:08:59.806Z,2.63
2023-03-17T14:11:33.627Z,4.03
2023-03-17T14:14:32.190Z,3.22
2023-03-17T14:17:24.131Z,2.83
2023-03-17T14:20:01.488Z,3.10
2023-03-17T14:22:29.994Z,2.97
2023-03-17T14:25:01.613Z,3.20
2023-03-17T14:27:33.579Z,2.88
2023-03-17T14:30:16.392Z,3.25
2023-03-17T14:32:50.864Z,2.90
2023-03-17T14:35:20.247Z,2.20
2023-03-17T14:37:48.660Z,2.22
2023-03-17T14:42:55.337Z,2.20
2023-03-17T14:45:31.384Z,2.75
2023-03-17T14:48:02.087Z,3.20
2023-03-17T14:50:33.953Z,2.45
2023-03-17T14:53:02.466Z,2.75
2023-03-17T14:55:43.066Z,2.75
2023-03-17T14:58:27.086Z,2.75
2023-03-17T15:01:08.291Z,2.85
2023-03-17T15:03:40.854Z,2.40
2023-03-17T15:06:26.243Z,3.88
2023-03-17T15:08:57.779Z,2.65
2023-03-17T15:11:36.733Z,2.92
2023-03-17T15:14:15.544Z,3.58
2023-03-17T15:16:49.713Z,2.92
2023-03-17T15:19:30.601Z,2.80
2023-03-17T15:21:58.846Z,2.58
2023-03-17T15:24:37.825Z,2.72
2023-03-17T15:27:32.396Z,3.20
2023-03-17T15:30:00.703Z,3.38
2023-03-17T15:32:29.404Z,2.75
2023-03-17T15:34:59.126Z,2.75
2023-03-17T15:37:30.632Z,2.83
2023-03-17T15:40:00.632Z,2.97
2023-03-17T15:42:34.484Z,2.83
2023-03-17T15:45:03.755Z,2.58
2023-03-17T15:47:34.450Z,3.65
2023-03-17T15:50:24.049Z,2.40
2023-03-17T15:52:52.542Z,2.53
2023-03-17T15:57:55.591Z,3.22
2023-03-17T16:00:26.668Z,2.55
2023-03-17T16:02:58.457Z,2.60
2023-03-17T16:05:29.781Z,2.40
2023-03-17T16:07:58.619Z,3.55
2023-03-17T16:10:29.361Z,2.47
2023-03-17T16:12:58.006Z,2.80
2023-03-17T16:17:59.054Z,2.22
2023-03-17T16:20:29.626Z,2.38
2023-03-17T16:23:04.897Z,2.60
2023-03-17T16:25:34.132Z,2.80
2023-03-17T16:28:08.362Z,2.25
2023-03-17T16:30:36.784Z,2.63
2023-03-17T16:33:16.249Z,2.92
2023-03-17T16:35:44.779Z,2.72
2023-03-17T16:38:20.219Z,3.55
2023-03-17T16:40:54.362Z,2.83
2023-03-17T16:43:32.168Z,2.45
2023-03-17T16:46:02.463Z,2.53
2023-03-17T16:48:31.077Z,3.42
2023-03-17T16:50:59.826Z,2.50
2023-03-17T16:53:28.166Z,2.63
2023-03-17T16:58:34.406Z,2.72
2023-03-17T17:01:07.035Z,2.45
2023-03-17T17:03:35.256Z,2.72
2023-03-17T17:06:03.515Z,2.58
2023-03-17T17:10:59.836Z,2.72
2023-03-17T17:15:56.584Z,3.38
2023-03-17T17:18:25.017Z,3.25
2023-03-17T17:20:54.480Z,3.55
2023-03-17T17:23:25.683Z,4.13
2023-03-17T17:25:55.175Z,3.25
2023-03-17T17:28:25.327Z,2.75
2023-03-17T17:30:54.068Z,3.08
2023-03-17T17:33:22.664Z,3.08
2023-03-17T17:35:51.552Z,3.13
2023-03-17T17:38:25.293Z,3.40
2023-03-17T17:40:54.686Z,3.30
2023-03-17T17:43:23.230Z,2.83
2023-03-17T17:45:52.697Z,3.08
2023-03-17T17:48:23.760Z,2.72
2023-03-17T17:50:53.931Z,3.58
2023-03-17T17:53:22.636Z,3.30
2023-03-17T17:55:51.447Z,2.78
2023-03-17T17:58:25.087Z,3.17
2023-03-17T18:00:54.065Z,3.22
2023-03-17T18:03:22.662Z,3.47
2023-03-17T18:05:51.366Z,2.63
2023-03-17T18:08:19.629Z,2.55
2023-03-17T18:10:49.661Z,2.45
2023-03-17T18:13:19.157Z,3.95
2023-03-17T18:15:47.297Z,2.95
2023-03-17T18:20:43.644Z,3.20
2023-03-17T18:23:11.894Z,2.65
2023-03-17T18:25:40.078Z,3.38
2023-03-17T18:30:36.896Z,2.58
2023-03-17T18:33:14.001Z,2.72
2023-03-17T18:35:42.853Z,3.58
2023-03-17T18:38:11.046Z,3.03
2023-03-17T18:40:39.534Z,2.97
2023-03-17T18:43:07.938Z,3.45
2023-03-17T18:48:04.483Z,2.92
2023-03-17T18:50:33.230Z,2.55
2023-03-17T18:53:01.980Z,2.67
2023-03-17T18:55:30.387Z,3.22
2023-03-17T18:57:58.757Z,2.88
2023-03-17T19:02:55.003Z,3.25
2023-03-17T19:05:23.642Z,2.55
2023-03-17T19:07:52.302Z,3.25
2023-03-17T19:10:20.660Z,3.28
2023-03-17T19:12:48.911Z,3.42
2023-03-17T19:15:17.162Z,3.35
2023-03-17T19:30:59.590Z,3.42
2023-03-17T19:33:27.966Z,2.95
2023-03-17T19:38:26.345Z,3.47
2023-03-17T19:40:54.739Z,3.10
2023-03-17T19:43:39.534Z,3.28
2023-03-17T19:46:10.586Z,2.72
2023-03-17T19:48:39.092Z,2.95
2023-03-17T19:51:14.592Z,2.38
2023-03-17T19:53:42.993Z,2.25
2023-03-17T19:58:39.032Z,2.70
2023-03-17T20:03:36.280Z,3.08
2023-03-17T20:06:04.806Z,3.25
2023-03-17T20:08:33.963Z,2.75
2023-03-17T20:11:02.846Z,3.50
2023-03-17T20:13:31.085Z,2.40
2023-03-17T20:15:59.532Z,3.38
2023-03-17T20:20:56.626Z,2.22
2023-03-17T20:23:25.895Z,3.38
2023-03-17T20:25:54.689Z,2.92
2023-03-17T20:28:23.119Z,3.25
2023-03-17T20:30:51.772Z,2.85
2023-03-17T20:35:48.079Z,3.00
2023-03-17T20:40:44.448Z,3.00
2023-03-17T20:55:56.574Z,3.28
2023-03-17T20:58:24.988Z,3.88
2023-03-17T21:08:17.384Z,3.03
2023-03-17T21:13:13.706Z,3.20
2023-03-17T21:15:42.181Z,2.72
2023-03-17T21:20:38.453Z,2.58
2023-03-17T21:28:04.351Z,2.75
2023-03-17T21:30:33.454Z,3.13
2023-03-17T21:33:02.320Z,2.47
2023-03-17T21:35:31.363Z,3.67
2023-03-17T21:37:59.693Z,3.03
2023-03-17T21:52:50.024Z,2.95
2023-03-17T21:55:18.281Z,2.85
2023-03-17T22:00:15.104Z,3.08
2023-03-17T22:02:44.857Z,3.78
2023-03-17T22:07:41.319Z,3.00
2023-03-17T22:10:10.499Z,3.83
2023-03-17T22:12:39.527Z,3.30
2023-03-17T22:15:08.407Z,3.22
2023-03-17T22:17:36.998Z,3.42
2023-03-17T22:20:05.812Z,3.00
2023-03-17T22:22:34.255Z,3.35
2023-03-17T22:27:30.520Z,2.80
2023-03-17T22:32:27.183Z,3.42
2023-03-17T22:34:55.422Z,4.15
2023-03-17T22:39:51.939Z,2.45
2023-03-17T22:42:20.159Z,3.20
2023-03-17T22:47:16.401Z,3.58
2023-03-17T22:49:44.905Z,4.10
2023-03-17T22:54:41.167Z,3.67
2023-03-17T22:57:09.720Z,3.53
2023-03-17T22:59:38.100Z,3.50
2023-03-17T23:04:34.822Z,2.97
2023-03-17T23:07:03.144Z,3.60
2023-03-17T23:09:31.817Z,3.60
2023-03-17T23:12:00.482Z,3.35
2023-03-17T23:14:28.913Z,3.83
2023-03-17T23:19:25.243Z,3.75
2023-03-17T23:21:53.402Z,3.22
2023-03-17T23:26:49.846Z,2.88
2023-03-17T23:29:18.084Z,3.72
2023-03-17T23:31:46.496Z,3.25
2023-03-17T23:34:14.858Z,3.72
2023-03-17T23:36:43.207Z,3.60
2023-03-17T23:41:39.841Z,4.00
2023-03-17T23:44:09.859Z,4.75
2023-03-17T23:46:38.776Z,4.18
2023-03-17T23:49:07.266Z,3.92
2023-03-17T23:51:36.134Z,3.45
2023-03-17T23:54:04.611Z,4.50
2023-03-17T23:56:33.100Z,4.00
2023-03-17T23:59:01.852Z,4.28
